MMTP/TAP METAR and TAF weather

Enter ICAO airport designator
Station Type Date Time Source
MMTP METAR 2021/03/04 20:40 UTC NOAA

MMTP 042040Z 22010KT 10SM SCT100 32/22 A2984 RMK SLP147 57020 916 8/050 HZY


Station Type Date Time Source
MMTP Decoded METAR 2021/03/04 20:40 UTC NOAA

Tapachula , Mexico (MMTP) 14-47N 092-23W
Mar 04, 2021 - 03:40 PM EST / 2021.03.04 2040 UTC
Wind: from the SW (220 degrees) at 12 MPH (10 KT):0
Visibility: 10 mile(s):0
Sky conditions: partly cloudy
Temperature: 89 F (32 C)
Heat index: 95.0 F (35.0 C):1
Dew Point: 71 F (22 C)
Relative Humidity: 55%
Pressure (altimeter): 29.84 in. Hg (1010 hPa)
Pressure tendency: 0.06 inches (2.0 hPa) lower than three hours ago
ob: MMTP 042040Z 22010KT 10SM SCT100 32/22 A2984 RMK SLP147 57020 916 8/050 HZY
cycle: 20

Station Type Date Time Source
MMTP TAF 2021/03/04 18:57 UTC NOAA

TAF MMTP 041654Z 0418/0524 24010KT P6SM SCT300 TX33/0418Z TN21/0511Z
BECMG 0421/0422 SCT070 BKN300
FM050300 07005KT P6SM SCT070 BKN300
BECMG 0511/0512 SKC
FM051500 23010KT P6SM SKC

Example: see airport list